EGTE

Exeter International Airport

Airport
ICAO code
EGTE
IATA Code
EXT
Summary
ICAO Region
EUR
ICAO Territory
Location

Clyst Honiton, Devon, England

Serving
Exeter
Elevation
102 ft
Coordinates
50° 44' 5" N , 3° 24' 49" W
KCC
Metar
Observation
EGTE 242320Z VRB01KT CAVOK 09/07 Q1021
Station
Exeter Airport
Date/Time
2022-09-24 23:20:00
Wind speed
01 kts
Lowest cloud amount
clouds and visibility OK
Temperature
9°C
Dew point
7°C
Humidity
87%
QNH
1021 hPa
Weather condition
n/a

Description

Relatively small regional and international airport serving the city of Exeter and the south-west of England.

Climatology

Temperate Marine climate/Oceanic climate (Köppen climate classification Cfb). Moderately cool summer and comparatively warm winter with a temperature range of only 14°C. Prevailing south-westerly winds from the Atlantic Ocean.

Runways

Designator Length Width Surface Rops
13/31 1339 46 ASP No/No
8/26 2083 46 ASP Yes/Yes

SKYbrary Partners:

Safety knowledge contributed by: